sensor_id;sensor_type;location;lat;lon;timestamp;P1;durP1;ratioP1;P2;durP2;ratioP2
62353;SDS011;48391;49.184;2.418;2022-08-06T00:01:01;1.40;;;0.52;;
62353;SDS011;48391;49.184;2.418;2022-08-06T00:03:27;0.50;;;0.30;;
62353;SDS011;48391;49.184;2.418;2022-08-06T00:05:53;1.25;;;0.50;;
62353;SDS011;48391;49.184;2.418;2022-08-06T00:08:19;2.15;;;0.40;;
62353;SDS011;48391;49.184;2.418;2022-08-06T00:10:45;9.43;;;1.10;;
62353;SDS011;48391;49.184;2.418;2022-08-06T00:13:11;9.73;;;1.08;;
62353;SDS011;48391;49.184;2.418;2022-08-06T00:15:38;3.85;;;0.47;;
62353;SDS011;48391;49.184;2.418;2022-08-06T00:18:04;0.52;;;0.40;;
62353;SDS011;48391;49.184;2.418;2022-08-06T00:20:30;1.98;;;0.40;;
62353;SDS011;48391;49.184;2.418;2022-08-06T00:22:56;2.72;;;0.43;;
62353;SDS011;48391;49.184;2.418;2022-08-06T00:25:23;2.35;;;0.30;;
62353;SDS011;48391;49.184;2.418;2022-08-06T00:27:49;1.60;;;0.70;;
62353;SDS011;48391;49.184;2.418;2022-08-06T00:30:15;4.70;;;0.38;;
62353;SDS011;48391;49.184;2.418;2022-08-06T00:32:41;0.40;;;0.20;;
62353;SDS011;48391;49.184;2.418;2022-08-06T00:35:07;0.80;;;0.30;;
62353;SDS011;48391;49.184;2.418;2022-08-06T00:37:33;0.28;;;0.10;;
62353;SDS011;48391;49.184;2.418;2022-08-06T00:39:59;5.13;;;1.00;;
62353;SDS011;48391;49.184;2.418;2022-08-06T00:42:26;1.85;;;0.40;;
62353;SDS011;48391;49.184;2.418;2022-08-06T00:44:52;2.63;;;0.82;;
62353;SDS011;48391;49.184;2.418;2022-08-06T00:47:18;3.08;;;0.55;;
62353;SDS011;48391;49.184;2.418;2022-08-06T00:49:44;1.17;;;0.50;;
62353;SDS011;48391;49.184;2.418;2022-08-06T00:52:10;1.15;;;0.30;;
62353;SDS011;48391;49.184;2.418;2022-08-06T00:54:36;1.95;;;0.70;;
62353;SDS011;48391;49.184;2.418;2022-08-06T00:57:05;0.35;;;0.20;;
62353;SDS011;48391;49.184;2.418;2022-08-06T00:59:31;2.10;;;0.43;;
62353;SDS011;48391;49.184;2.418;2022-08-06T01:01:57;1.25;;;0.47;;
62353;SDS011;48391;49.184;2.418;2022-08-06T01:04:23;0.30;;;0.20;;
62353;SDS011;48391;49.184;2.418;2022-08-06T01:06:49;3.85;;;0.57;;
62353;SDS011;48391;49.184;2.418;2022-08-06T01:09:15;1.08;;;0.60;;
62353;SDS011;48391;49.184;2.418;2022-08-06T01:11:41;0.88;;;0.50;;
62353;SDS011;48391;49.184;2.418;2022-08-06T01:14:07;2.45;;;0.43;;
62353;SDS011;48391;49.184;2.418;2022-08-06T07:08:05;3.92;;;0.95;;
62353;SDS011;48391;49.184;2.418;2022-08-06T07:10:33;0.43;;;0.40;;
62353;SDS011;48391;49.184;2.418;2022-08-06T07:13:00;5.43;;;1.13;;
62353;SDS011;48391;49.184;2.418;2022-08-06T07:15:26;1.52;;;0.75;;
62353;SDS011;48391;49.184;2.418;2022-08-06T07:17:54;3.00;;;0.98;;
62353;SDS011;48391;49.184;2.418;2022-08-06T07:20:22;0.98;;;0.73;;
62353;SDS011;48391;49.184;2.418;2022-08-06T07:22:49;2.83;;;1.02;;
62353;SDS011;48391;49.184;2.418;2022-08-06T07:25:16;1.83;;;0.43;;
62353;SDS011;48391;49.184;2.418;2022-08-06T07:27:44;1.02;;;0.50;;
62353;SDS011;48391;49.184;2.418;2022-08-06T07:30:11;4.55;;;0.95;;
62353;SDS011;48391;49.184;2.418;2022-08-06T07:32:38;1.70;;;0.43;;
62353;SDS011;48391;49.184;2.418;2022-08-06T07:35:05;1.73;;;0.55;;
62353;SDS011;48391;49.184;2.418;2022-08-06T07:37:31;1.75;;;0.60;;
62353;SDS011;48391;49.184;2.418;2022-08-06T07:39:57;1.65;;;0.25;;
62353;SDS011;48391;49.184;2.418;2022-08-06T07:42:25;2.13;;;0.63;;
62353;SDS011;48391;49.184;2.418;2022-08-06T07:44:53;1.13;;;0.40;;
62353;SDS011;48391;49.184;2.418;2022-08-06T07:47:22;1.02;;;0.57;;
62353;SDS011;48391;49.184;2.418;2022-08-06T07:49:52;3.10;;;0.82;;
62353;SDS011;48391;49.184;2.418;2022-08-06T07:52:19;2.13;;;0.68;;
62353;SDS011;48391;49.184;2.418;2022-08-06T07:54:46;3.63;;;0.38;;
62353;SDS011;48391;49.184;2.418;2022-08-06T07:57:13;2.50;;;0.50;;
62353;SDS011;48391;49.184;2.418;2022-08-06T07:59:39;0.65;;;0.25;;
62353;SDS011;48391;49.184;2.418;2022-08-06T08:02:06;2.65;;;0.45;;
62353;SDS011;48391;49.184;2.418;2022-08-06T08:04:32;7.32;;;0.60;;
62353;SDS011;48391;49.184;2.418;2022-08-06T08:07:18;2.47;;;1.05;;
62353;SDS011;48391;49.184;2.418;2022-08-06T08:09:45;0.52;;;0.43;;
62353;SDS011;48391;49.184;2.418;2022-08-06T08:12:12;3.40;;;0.50;;
62353;SDS011;48391;49.184;2.418;2022-08-06T08:14:39;2.60;;;0.43;;
62353;SDS011;48391;49.184;2.418;2022-08-06T08:17:06;0.50;;;0.30;;
62353;SDS011;48391;49.184;2.418;2022-08-06T08:19:32;2.20;;;0.30;;
62353;SDS011;48391;49.184;2.418;2022-08-06T08:21:59;2.78;;;0.45;;
62353;SDS011;48391;49.184;2.418;2022-08-06T08:24:26;3.53;;;0.43;;
62353;SDS011;48391;49.184;2.418;2022-08-06T08:26:53;1.88;;;0.28;;
62353;SDS011;48391;49.184;2.418;2022-08-06T08:29:20;1.55;;;0.35;;
62353;SDS011;48391;49.184;2.418;2022-08-06T08:31:46;2.70;;;0.70;;
62353;SDS011;48391;49.184;2.418;2022-08-06T08:34:12;5.70;;;0.50;;
62353;SDS011;48391;49.184;2.418;2022-08-06T08:36:39;2.65;;;0.55;;
62353;SDS011;48391;49.184;2.418;2022-08-06T08:39:06;2.35;;;0.57;;
62353;SDS011;48391;49.184;2.418;2022-08-06T08:41:46;4.30;;;0.40;;
62353;SDS011;48391;49.184;2.418;2022-08-06T08:44:13;0.65;;;0.40;;
62353;SDS011;48391;49.184;2.418;2022-08-06T08:46:40;1.17;;;0.45;;
62353;SDS011;48391;49.184;2.418;2022-08-06T08:49:07;2.15;;;0.40;;
62353;SDS011;48391;49.184;2.418;2022-08-06T08:54:05;7.65;;;0.80;;
62353;SDS011;48391;49.184;2.418;2022-08-06T08:56:31;3.50;;;0.57;;
62353;SDS011;48391;49.184;2.418;2022-08-06T08:58:58;0.60;;;0.28;;
62353;SDS011;48391;49.184;2.418;2022-08-06T09:01:24;0.70;;;0.30;;
62353;SDS011;48391;49.184;2.418;2022-08-06T09:03:50;1.00;;;0.25;;
62353;SDS011;48391;49.184;2.418;2022-08-06T09:06:17;1.65;;;0.47;;
62353;SDS011;48391;49.184;2.418;2022-08-06T09:08:44;2.28;;;0.38;;
62353;SDS011;48391;49.184;2.418;2022-08-06T09:11:14;2.30;;;0.52;;
62353;SDS011;48391;49.184;2.418;2022-08-06T09:13:40;1.75;;;0.32;;
62353;SDS011;48391;49.184;2.418;2022-08-06T09:16:07;1.30;;;0.20;;
62353;SDS011;48391;49.184;2.418;2022-08-06T09:18:33;3.38;;;0.47;;
62353;SDS011;48391;49.184;2.418;2022-08-06T09:20:59;1.17;;;0.30;;
62353;SDS011;48391;49.184;2.418;2022-08-06T09:23:29;1.27;;;0.30;;
62353;SDS011;48391;49.184;2.418;2022-08-06T09:25:55;5.10;;;0.75;;
62353;SDS011;48391;49.184;2.418;2022-08-06T09:28:37;1.17;;;0.20;;
62353;SDS011;48391;49.184;2.418;2022-08-06T09:31:08;1.80;;;0.60;;
62353;SDS011;48391;49.184;2.418;2022-08-06T09:33:36;1.05;;;0.50;;
62353;SDS011;48391;49.184;2.418;2022-08-06T09:36:06;2.53;;;0.52;;
62353;SDS011;48391;49.184;2.418;2022-08-06T09:38:54;1.20;;;0.47;;
62353;SDS011;48391;49.184;2.418;2022-08-06T09:41:21;2.67;;;0.70;;
62353;SDS011;48391;49.184;2.418;2022-08-06T09:43:48;1.92;;;0.60;;
62353;SDS011;48391;49.184;2.418;2022-08-06T09:46:16;1.80;;;1.33;;
62353;SDS011;48391;49.184;2.418;2022-08-06T09:48:57;0.95;;;0.50;;
62353;SDS011;48391;49.184;2.418;2022-08-06T09:51:24;1.92;;;0.50;;
62353;SDS011;48391;49.184;2.418;2022-08-06T09:53:51;1.13;;;0.60;;
62353;SDS011;48391;49.184;2.418;2022-08-06T09:56:18;13.00;;;1.10;;
62353;SDS011;48391;49.184;2.418;2022-08-06T09:58:45;1.75;;;0.60;;
62353;SDS011;48391;49.184;2.418;2022-08-06T10:01:12;1.00;;;0.52;;
62353;SDS011;48391;49.184;2.418;2022-08-06T10:03:39;0.40;;;0.30;;
62353;SDS011;48391;49.184;2.418;2022-08-06T10:06:12;1.92;;;0.75;;
62353;SDS011;48391;49.184;2.418;2022-08-06T10:08:39;2.05;;;0.88;;
62353;SDS011;48391;49.184;2.418;2022-08-06T10:11:06;2.28;;;0.60;;
62353;SDS011;48391;49.184;2.418;2022-08-06T10:13:33;1.23;;;0.60;;
62353;SDS011;48391;49.184;2.418;2022-08-06T10:16:00;5.47;;;1.00;;
62353;SDS011;48391;49.184;2.418;2022-08-06T10:18:40;1.13;;;0.82;;
62353;SDS011;48391;49.184;2.418;2022-08-06T10:21:08;0.82;;;0.30;;
62353;SDS011;48391;49.184;2.418;2022-08-06T10:23:36;3.83;;;0.63;;
62353;SDS011;48391;49.184;2.418;2022-08-06T10:26:04;4.63;;;1.02;;
62353;SDS011;48391;49.184;2.418;2022-08-06T10:28:32;3.80;;;0.70;;
62353;SDS011;48391;49.184;2.418;2022-08-06T10:30:59;0.70;;;0.60;;
62353;SDS011;48391;49.184;2.418;2022-08-06T10:33:26;1.52;;;0.85;;
62353;SDS011;48391;49.184;2.418;2022-08-06T10:35:58;1.52;;;0.50;;
62353;SDS011;48391;49.184;2.418;2022-08-06T10:38:25;1.23;;;0.65;;
62353;SDS011;48391;49.184;2.418;2022-08-06T10:40:53;2.85;;;0.60;;
62353;SDS011;48391;49.184;2.418;2022-08-06T10:43:19;1.52;;;0.57;;
62353;SDS011;48391;49.184;2.418;2022-08-06T10:45:46;2.15;;;0.68;;
62353;SDS011;48391;49.184;2.418;2022-08-06T10:48:13;2.15;;;0.75;;
62353;SDS011;48391;49.184;2.418;2022-08-06T10:50:40;1.38;;;0.60;;
62353;SDS011;48391;49.184;2.418;2022-08-06T10:53:06;0.88;;;0.50;;
62353;SDS011;48391;49.184;2.418;2022-08-06T10:55:35;1.15;;;0.70;;
62353;SDS011;48391;49.184;2.418;2022-08-06T10:58:02;1.58;;;0.88;;
62353;SDS011;48391;49.184;2.418;2022-08-06T11:00:30;0.90;;;0.82;;
62353;SDS011;48391;49.184;2.418;2022-08-06T11:03:10;10.13;;;1.20;;
62353;SDS011;48391;49.184;2.418;2022-08-06T11:05:38;2.08;;;1.48;;
62353;SDS011;48391;49.184;2.418;2022-08-06T11:13:21;1.92;;;1.10;;
62353;SDS011;48391;49.184;2.418;2022-08-06T11:15:51;1.85;;;1.50;;
62353;SDS011;48391;49.184;2.418;2022-08-06T11:18:18;1.65;;;1.48;;
62353;SDS011;48391;49.184;2.418;2022-08-06T11:20:45;1.73;;;1.52;;
62353;SDS011;48391;49.184;2.418;2022-08-06T11:25:44;3.00;;;1.25;;
62353;SDS011;48391;49.184;2.418;2022-08-06T11:28:13;1.80;;;1.20;;
62353;SDS011;48391;49.184;2.418;2022-08-06T11:30:47;1.63;;;1.35;;
62353;SDS011;48391;49.184;2.418;2022-08-06T11:33:15;1.10;;;1.00;;
62353;SDS011;48391;49.184;2.418;2022-08-06T11:35:42;2.15;;;1.30;;
62353;SDS011;48391;49.184;2.418;2022-08-06T11:38:10;1.77;;;1.13;;
62353;SDS011;48391;49.184;2.418;2022-08-06T11:40:59;1.38;;;1.20;;
62353;SDS011;48391;49.184;2.418;2022-08-06T11:51:40;2.55;;;1.83;;
62353;SDS011;48391;49.184;2.418;2022-08-06T11:54:24;3.22;;;1.30;;
62353;SDS011;48391;49.184;2.418;2022-08-06T12:02:10;2.03;;;0.93;;
62353;SDS011;48391;49.184;2.418;2022-08-06T12:09:41;2.80;;;1.10;;
62353;SDS011;48391;49.184;2.418;2022-08-06T12:15:02;1.73;;;0.82;;
62353;SDS011;48391;49.184;2.418;2022-08-06T12:17:29;1.23;;;1.10;;
62353;SDS011;48391;49.184;2.418;2022-08-06T12:19:56;2.35;;;1.60;;
62353;SDS011;48391;49.184;2.418;2022-08-06T12:22:23;1.73;;;1.60;;
62353;SDS011;48391;49.184;2.418;2022-08-06T12:24:50;3.53;;;1.83;;
62353;SDS011;48391;49.184;2.418;2022-08-06T12:27:19;2.10;;;1.17;;
62353;SDS011;48391;49.184;2.418;2022-08-06T12:29:45;1.45;;;1.35;;
62353;SDS011;48391;49.184;2.418;2022-08-06T12:34:47;1.90;;;1.00;;
62353;SDS011;48391;49.184;2.418;2022-08-06T12:37:13;4.07;;;1.45;;
62353;SDS011;48391;49.184;2.418;2022-08-06T12:39:40;3.65;;;1.90;;
62353;SDS011;48391;49.184;2.418;2022-08-06T12:42:25;3.20;;;1.80;;
62353;SDS011;48391;49.184;2.418;2022-08-06T12:44:51;6.30;;;3.03;;
62353;SDS011;48391;49.184;2.418;2022-08-06T12:47:18;1.73;;;1.48;;
62353;SDS011;48391;49.184;2.418;2022-08-06T12:49:44;1.70;;;1.60;;
62353;SDS011;48391;49.184;2.418;2022-08-06T12:52:14;2.13;;;1.60;;
62353;SDS011;48391;49.184;2.418;2022-08-06T12:54:42;2.33;;;2.13;;
62353;SDS011;48391;49.184;2.418;2022-08-06T12:57:08;4.03;;;2.25;;
62353;SDS011;48391;49.184;2.418;2022-08-06T12:59:34;2.10;;;1.95;;
62353;SDS011;48391;49.184;2.418;2022-08-06T13:02:01;4.00;;;2.08;;
62353;SDS011;48391;49.184;2.418;2022-08-06T13:04:27;1.83;;;1.73;;
62353;SDS011;48391;49.184;2.418;2022-08-06T13:06:54;21.25;;;2.97;;
62353;SDS011;48391;49.184;2.418;2022-08-06T13:09:27;3.20;;;1.60;;
62353;SDS011;48391;49.184;2.418;2022-08-06T13:11:54;1.65;;;1.20;;
62353;SDS011;48391;49.184;2.418;2022-08-06T13:14:20;1.95;;;1.65;;
62353;SDS011;48391;49.184;2.418;2022-08-06T13:16:47;2.85;;;1.23;;
62353;SDS011;48391;49.184;2.418;2022-08-06T13:19:14;4.10;;;0.80;;
62353;SDS011;48391;49.184;2.418;2022-08-06T13:21:41;2.70;;;0.75;;
62353;SDS011;48391;49.184;2.418;2022-08-06T13:24:07;0.85;;;0.52;;
62353;SDS011;48391;49.184;2.418;2022-08-06T13:26:34;3.85;;;0.85;;
62353;SDS011;48391;49.184;2.418;2022-08-06T13:31:40;1.25;;;0.30;;
62353;SDS011;48391;49.184;2.418;2022-08-06T13:34:08;0.70;;;0.20;;
62353;SDS011;48391;49.184;2.418;2022-08-06T13:36:53;0.82;;;0.30;;
62353;SDS011;48391;49.184;2.418;2022-08-06T13:39:21;0.55;;;0.32;;
62353;SDS011;48391;49.184;2.418;2022-08-06T13:41:58;1.85;;;0.50;;
62353;SDS011;48391;49.184;2.418;2022-08-06T13:44:32;1.02;;;0.30;;
62353;SDS011;48391;49.184;2.418;2022-08-06T13:46:58;1.77;;;0.50;;
62353;SDS011;48391;49.184;2.418;2022-08-06T13:49:24;1.42;;;0.52;;
62353;SDS011;48391;49.184;2.418;2022-08-06T13:51:51;3.50;;;0.80;;
62353;SDS011;48391;49.184;2.418;2022-08-06T13:54:17;0.93;;;0.30;;
62353;SDS011;48391;49.184;2.418;2022-08-06T13:56:43;0.80;;;0.30;;
62353;SDS011;48391;49.184;2.418;2022-08-06T13:59:09;1.23;;;0.57;;
62353;SDS011;48391;49.184;2.418;2022-08-06T14:01:35;0.75;;;0.17;;
62353;SDS011;48391;49.184;2.418;2022-08-06T14:04:01;1.95;;;0.35;;
62353;SDS011;48391;49.184;2.418;2022-08-06T14:06:27;0.40;;;0.25;;
62353;SDS011;48391;49.184;2.418;2022-08-06T14:08:53;1.60;;;0.32;;
62353;SDS011;48391;49.184;2.418;2022-08-06T14:11:19;2.05;;;0.68;;
62353;SDS011;48391;49.184;2.418;2022-08-06T14:13:45;1.75;;;0.22;;
62353;SDS011;48391;49.184;2.418;2022-08-06T14:16:11;0.32;;;0.22;;
62353;SDS011;48391;49.184;2.418;2022-08-06T14:18:38;0.73;;;0.20;;
62353;SDS011;48391;49.184;2.418;2022-08-06T14:21:04;2.47;;;0.43;;
62353;SDS011;48391;49.184;2.418;2022-08-06T14:23:30;1.55;;;0.30;;
62353;SDS011;48391;49.184;2.418;2022-08-06T14:25:56;0.75;;;0.30;;
62353;SDS011;48391;49.184;2.418;2022-08-06T14:28:23;2.20;;;0.32;;
62353;SDS011;48391;49.184;2.418;2022-08-06T14:30:50;2.58;;;0.20;;
62353;SDS011;48391;49.184;2.418;2022-08-06T14:33:16;0.95;;;0.20;;
62353;SDS011;48391;49.184;2.418;2022-08-06T14:35:43;6.60;;;0.75;;
62353;SDS011;48391;49.184;2.418;2022-08-06T14:38:09;2.15;;;0.20;;
62353;SDS011;48391;49.184;2.418;2022-08-06T14:40:37;2.90;;;0.65;;
62353;SDS011;48391;49.184;2.418;2022-08-06T14:43:22;5.50;;;0.57;;
62353;SDS011;48391;49.184;2.418;2022-08-06T14:46:07;2.83;;;0.30;;
62353;SDS011;48391;49.184;2.418;2022-08-06T14:48:33;0.75;;;0.45;;
62353;SDS011;48391;49.184;2.418;2022-08-06T14:50:59;0.22;;;0.20;;
62353;SDS011;48391;49.184;2.418;2022-08-06T14:53:25;2.20;;;0.50;;
62353;SDS011;48391;49.184;2.418;2022-08-06T14:55:51;0.43;;;0.40;;
62353;SDS011;48391;49.184;2.418;2022-08-06T14:58:17;2.20;;;0.50;;
62353;SDS011;48391;49.184;2.418;2022-08-06T15:00:43;3.47;;;0.85;;
62353;SDS011;48391;49.184;2.418;2022-08-06T15:03:12;2.90;;;0.60;;
62353;SDS011;48391;49.184;2.418;2022-08-06T15:05:38;1.85;;;0.88;;
62353;SDS011;48391;49.184;2.418;2022-08-06T15:08:04;0.50;;;0.50;;
62353;SDS011;48391;49.184;2.418;2022-08-06T15:10:30;1.25;;;0.70;;
62353;SDS011;48391;49.184;2.418;2022-08-06T15:12:56;0.88;;;0.50;;
62353;SDS011;48391;49.184;2.418;2022-08-06T15:15:22;1.00;;;0.93;;
62353;SDS011;48391;49.184;2.418;2022-08-06T15:17:48;1.85;;;0.82;;
62353;SDS011;48391;49.184;2.418;2022-08-06T15:20:14;2.92;;;1.02;;
62353;SDS011;48391;49.184;2.418;2022-08-06T15:22:41;1.95;;;0.68;;
62353;SDS011;48391;49.184;2.418;2022-08-06T15:25:07;0.85;;;0.50;;
62353;SDS011;48391;49.184;2.418;2022-08-06T15:27:33;2.92;;;0.98;;
62353;SDS011;48391;49.184;2.418;2022-08-06T15:29:59;2.85;;;0.50;;
62353;SDS011;48391;49.184;2.418;2022-08-06T15:32:25;4.05;;;0.90;;
62353;SDS011;48391;49.184;2.418;2022-08-06T15:34:51;1.98;;;0.90;;
62353;SDS011;48391;49.184;2.418;2022-08-06T15:37:18;0.80;;;0.55;;
62353;SDS011;48391;49.184;2.418;2022-08-06T15:39:44;0.60;;;0.60;;
62353;SDS011;48391;49.184;2.418;2022-08-06T15:42:10;2.17;;;0.80;;
62353;SDS011;48391;49.184;2.418;2022-08-06T15:44:37;2.67;;;1.58;;
62353;SDS011;48391;49.184;2.418;2022-08-06T15:47:05;1.73;;;0.90;;
62353;SDS011;48391;49.184;2.418;2022-08-06T15:49:31;2.40;;;0.70;;
62353;SDS011;48391;49.184;2.418;2022-08-06T15:51:58;1.80;;;0.77;;
62353;SDS011;48391;49.184;2.418;2022-08-06T15:54:24;0.75;;;0.68;;
62353;SDS011;48391;49.184;2.418;2022-08-06T15:56:50;2.13;;;0.90;;
62353;SDS011;48391;49.184;2.418;2022-08-06T15:59:16;1.55;;;0.98;;
62353;SDS011;48391;49.184;2.418;2022-08-06T16:01:42;2.80;;;0.85;;
62353;SDS011;48391;49.184;2.418;2022-08-06T16:04:08;2.00;;;1.05;;
62353;SDS011;48391;49.184;2.418;2022-08-06T16:06:35;0.57;;;0.52;;
62353;SDS011;48391;49.184;2.418;2022-08-06T16:09:01;1.00;;;0.52;;
62353;SDS011;48391;49.184;2.418;2022-08-06T16:11:27;1.38;;;0.60;;
62353;SDS011;48391;49.184;2.418;2022-08-06T16:13:53;1.05;;;0.65;;
62353;SDS011;48391;49.184;2.418;2022-08-06T16:16:19;3.38;;;0.98;;
62353;SDS011;48391;49.184;2.418;2022-08-06T16:18:46;2.42;;;0.85;;
62353;SDS011;48391;49.184;2.418;2022-08-06T16:21:12;1.88;;;1.52;;
62353;SDS011;48391;49.184;2.418;2022-08-06T16:23:38;0.88;;;0.80;;
62353;SDS011;48391;49.184;2.418;2022-08-06T16:26:04;1.10;;;0.73;;
62353;SDS011;48391;49.184;2.418;2022-08-06T16:28:30;2.65;;;0.90;;
62353;SDS011;48391;49.184;2.418;2022-08-06T16:30:56;2.72;;;1.00;;
62353;SDS011;48391;49.184;2.418;2022-08-06T16:33:22;2.15;;;0.90;;
62353;SDS011;48391;49.184;2.418;2022-08-06T16:35:48;2.25;;;1.15;;
62353;SDS011;48391;49.184;2.418;2022-08-06T16:38:15;0.70;;;0.70;;
62353;SDS011;48391;49.184;2.418;2022-08-06T16:40:41;1.42;;;0.77;;
62353;SDS011;48391;49.184;2.418;2022-08-06T16:43:07;1.05;;;1.00;;
62353;SDS011;48391;49.184;2.418;2022-08-06T16:45:34;3.00;;;0.70;;
62353;SDS011;48391;49.184;2.418;2022-08-06T16:48:00;1.35;;;0.88;;
62353;SDS011;48391;49.184;2.418;2022-08-06T16:50:26;1.27;;;0.65;;
62353;SDS011;48391;49.184;2.418;2022-08-06T16:52:52;0.93;;;0.57;;
62353;SDS011;48391;49.184;2.418;2022-08-06T16:55:18;0.88;;;0.63;;
62353;SDS011;48391;49.184;2.418;2022-08-06T16:57:44;0.98;;;0.73;;
62353;SDS011;48391;49.184;2.418;2022-08-06T17:00:11;2.72;;;0.60;;
62353;SDS011;48391;49.184;2.418;2022-08-06T17:02:45;1.75;;;0.73;;
62353;SDS011;48391;49.184;2.418;2022-08-06T17:05:15;1.52;;;0.65;;
62353;SDS011;48391;49.184;2.418;2022-08-06T17:07:42;0.28;;;0.25;;
62353;SDS011;48391;49.184;2.418;2022-08-06T17:10:09;0.77;;;0.63;;
62353;SDS011;48391;49.184;2.418;2022-08-06T17:12:35;3.33;;;1.15;;
62353;SDS011;48391;49.184;2.418;2022-08-06T17:15:02;2.75;;;0.80;;
62353;SDS011;48391;49.184;2.418;2022-08-06T17:17:28;1.58;;;0.52;;
62353;SDS011;48391;49.184;2.418;2022-08-06T17:19:54;5.22;;;0.80;;
62353;SDS011;48391;49.184;2.418;2022-08-06T17:22:20;2.00;;;0.80;;
62353;SDS011;48391;49.184;2.418;2022-08-06T17:24:46;0.85;;;0.55;;
62353;SDS011;48391;49.184;2.418;2022-08-06T17:27:13;4.75;;;0.40;;
62353;SDS011;48391;49.184;2.418;2022-08-06T17:29:40;0.43;;;0.25;;
62353;SDS011;48391;49.184;2.418;2022-08-06T17:32:06;0.45;;;0.43;;
62353;SDS011;48391;49.184;2.418;2022-08-06T17:34:32;0.70;;;0.38;;
62353;SDS011;48391;49.184;2.418;2022-08-06T17:36:58;3.65;;;0.73;;
62353;SDS011;48391;49.184;2.418;2022-08-06T17:39:24;3.53;;;0.60;;
62353;SDS011;48391;49.184;2.418;2022-08-06T17:41:50;7.03;;;0.50;;
62353;SDS011;48391;49.184;2.418;2022-08-06T17:44:16;4.40;;;0.68;;
62353;SDS011;48391;49.184;2.418;2022-08-06T17:46:42;4.85;;;0.30;;
62353;SDS011;48391;49.184;2.418;2022-08-06T17:49:08;3.92;;;0.85;;
62353;SDS011;48391;49.184;2.418;2022-08-06T17:51:35;1.27;;;0.20;;
62353;SDS011;48391;49.184;2.418;2022-08-06T17:54:04;2.08;;;0.65;;
62353;SDS011;48391;49.184;2.418;2022-08-06T17:56:30;0.55;;;0.20;;
62353;SDS011;48391;49.184;2.418;2022-08-06T17:59:03;1.08;;;0.40;;
62353;SDS011;48391;49.184;2.418;2022-08-06T18:01:29;0.55;;;0.35;;
62353;SDS011;48391;49.184;2.418;2022-08-06T18:03:55;1.02;;;0.20;;
62353;SDS011;48391;49.184;2.418;2022-08-06T18:06:22;1.95;;;0.45;;
62353;SDS011;48391;49.184;2.418;2022-08-06T18:08:48;0.45;;;0.28;;
62353;SDS011;48391;49.184;2.418;2022-08-06T18:11:14;0.43;;;0.32;;
62353;SDS011;48391;49.184;2.418;2022-08-06T18:13:40;2.33;;;0.57;;
62353;SDS011;48391;49.184;2.418;2022-08-06T18:16:06;2.70;;;0.98;;
62353;SDS011;48391;49.184;2.418;2022-08-06T18:18:32;0.90;;;0.40;;
62353;SDS011;48391;49.184;2.418;2022-08-06T18:20:58;0.90;;;0.22;;
62353;SDS011;48391;49.184;2.418;2022-08-06T18:23:24;0.82;;;0.30;;
62353;SDS011;48391;49.184;2.418;2022-08-06T18:25:50;1.75;;;0.43;;
62353;SDS011;48391;49.184;2.418;2022-08-06T18:28:18;0.85;;;0.60;;
62353;SDS011;48391;49.184;2.418;2022-08-06T18:30:44;1.48;;;0.93;;
62353;SDS011;48391;49.184;2.418;2022-08-06T18:33:10;1.30;;;0.20;;
62353;SDS011;48391;49.184;2.418;2022-08-06T18:35:36;3.22;;;0.45;;
62353;SDS011;48391;49.184;2.418;2022-08-06T18:38:02;1.05;;;0.32;;
62353;SDS011;48391;49.184;2.418;2022-08-06T18:40:28;2.83;;;0.20;;
62353;SDS011;48391;49.184;2.418;2022-08-06T18:42:54;0.30;;;0.20;;
62353;SDS011;48391;49.184;2.418;2022-08-06T18:45:22;2.35;;;0.47;;
62353;SDS011;48391;49.184;2.418;2022-08-06T18:47:48;1.20;;;0.20;;
62353;SDS011;48391;49.184;2.418;2022-08-06T18:50:14;0.93;;;0.25;;
62353;SDS011;48391;49.184;2.418;2022-08-06T18:52:40;1.08;;;0.28;;
62353;SDS011;48391;49.184;2.418;2022-08-06T18:55:06;0.50;;;0.22;;
62353;SDS011;48391;49.184;2.418;2022-08-06T18:57:32;1.98;;;1.00;;
62353;SDS011;48391;49.184;2.418;2022-08-06T18:59:59;0.30;;;0.20;;
62353;SDS011;48391;49.184;2.418;2022-08-06T19:02:25;2.47;;;0.38;;
62353;SDS011;48391;49.184;2.418;2022-08-06T19:04:51;1.20;;;0.70;;
62353;SDS011;48391;49.184;2.418;2022-08-06T19:07:18;1.85;;;0.38;;
62353;SDS011;48391;49.184;2.418;2022-08-06T19:09:44;4.82;;;1.17;;
62353;SDS011;48391;49.184;2.418;2022-08-06T19:12:14;1.75;;;0.55;;
62353;SDS011;48391;49.184;2.418;2022-08-06T19:14:41;0.85;;;0.35;;
62353;SDS011;48391;49.184;2.418;2022-08-06T19:17:07;2.17;;;0.40;;
62353;SDS011;48391;49.184;2.418;2022-08-06T19:19:34;1.08;;;0.35;;
62353;SDS011;48391;49.184;2.418;2022-08-06T19:22:01;0.88;;;0.45;;
62353;SDS011;48391;49.184;2.418;2022-08-06T19:24:27;1.50;;;0.55;;
62353;SDS011;48391;49.184;2.418;2022-08-06T19:26:53;0.80;;;0.73;;
62353;SDS011;48391;49.184;2.418;2022-08-06T19:29:19;3.47;;;0.60;;
62353;SDS011;48391;49.184;2.418;2022-08-06T19:31:45;3.15;;;0.50;;
62353;SDS011;48391;49.184;2.418;2022-08-06T19:34:12;4.05;;;2.38;;
62353;SDS011;48391;49.184;2.418;2022-08-06T19:36:38;0.70;;;0.40;;
62353;SDS011;48391;49.184;2.418;2022-08-06T19:39:05;0.88;;;0.35;;
62353;SDS011;48391;49.184;2.418;2022-08-06T19:41:32;0.68;;;0.22;;
62353;SDS011;48391;49.184;2.418;2022-08-06T19:43:58;0.68;;;0.32;;
62353;SDS011;48391;49.184;2.418;2022-08-06T19:46:24;2.28;;;0.50;;
62353;SDS011;48391;49.184;2.418;2022-08-06T19:48:50;0.82;;;0.40;;
62353;SDS011;48391;49.184;2.418;2022-08-06T19:51:16;1.00;;;0.70;;
62353;SDS011;48391;49.184;2.418;2022-08-06T19:53:42;2.85;;;0.60;;
62353;SDS011;48391;49.184;2.418;2022-08-06T19:56:09;4.32;;;0.70;;
62353;SDS011;48391;49.184;2.418;2022-08-06T19:58:35;2.70;;;0.55;;
62353;SDS011;48391;49.184;2.418;2022-08-06T20:01:01;7.13;;;1.15;;
62353;SDS011;48391;49.184;2.418;2022-08-06T20:03:34;2.75;;;0.70;;
62353;SDS011;48391;49.184;2.418;2022-08-06T20:06:00;1.08;;;0.57;;
62353;SDS011;48391;49.184;2.418;2022-08-06T20:08:26;0.75;;;0.50;;
62353;SDS011;48391;49.184;2.418;2022-08-06T20:10:52;0.95;;;0.60;;
62353;SDS011;48391;49.184;2.418;2022-08-06T20:13:18;1.98;;;0.52;;
62353;SDS011;48391;49.184;2.418;2022-08-06T20:15:45;0.40;;;0.40;;
62353;SDS011;48391;49.184;2.418;2022-08-06T20:18:11;0.45;;;0.45;;
62353;SDS011;48391;49.184;2.418;2022-08-06T20:20:37;1.58;;;0.80;;
62353;SDS011;48391;49.184;2.418;2022-08-06T20:23:03;1.27;;;0.47;;
62353;SDS011;48391;49.184;2.418;2022-08-06T20:25:30;0.65;;;0.28;;
62353;SDS011;48391;49.184;2.418;2022-08-06T20:27:58;1.25;;;0.32;;
62353;SDS011;48391;49.184;2.418;2022-08-06T20:30:24;0.63;;;0.28;;
62353;SDS011;48391;49.184;2.418;2022-08-06T20:32:50;6.85;;;1.02;;
62353;SDS011;48391;49.184;2.418;2022-08-06T20:35:16;2.78;;;0.40;;
62353;SDS011;48391;49.184;2.418;2022-08-06T20:37:43;0.77;;;0.65;;
62353;SDS011;48391;49.184;2.418;2022-08-06T20:40:10;1.17;;;0.55;;
62353;SDS011;48391;49.184;2.418;2022-08-06T20:42:40;0.77;;;0.50;;
62353;SDS011;48391;49.184;2.418;2022-08-06T20:45:06;1.10;;;0.82;;
62353;SDS011;48391;49.184;2.418;2022-08-06T20:47:35;1.35;;;0.68;;
62353;SDS011;48391;49.184;2.418;2022-08-06T20:50:01;0.30;;;0.30;;
62353;SDS011;48391;49.184;2.418;2022-08-06T20:52:27;0.45;;;0.43;;
62353;SDS011;48391;49.184;2.418;2022-08-06T20:54:53;1.60;;;0.60;;
62353;SDS011;48391;49.184;2.418;2022-08-06T20:57:22;0.68;;;0.68;;
62353;SDS011;48391;49.184;2.418;2022-08-06T20:59:49;1.77;;;0.38;;
62353;SDS011;48391;49.184;2.418;2022-08-06T21:02:15;3.92;;;0.90;;
62353;SDS011;48391;49.184;2.418;2022-08-06T21:04:41;0.57;;;0.57;;
62353;SDS011;48391;49.184;2.418;2022-08-06T21:07:07;2.28;;;0.95;;
62353;SDS011;48391;49.184;2.418;2022-08-06T21:09:36;1.58;;;0.82;;
62353;SDS011;48391;49.184;2.418;2022-08-06T21:12:02;2.08;;;0.60;;
62353;SDS011;48391;49.184;2.418;2022-08-06T21:14:28;0.82;;;0.70;;
62353;SDS011;48391;49.184;2.418;2022-08-06T21:16:54;1.05;;;0.60;;